Time;durP1;ratioP1;P1;durP2;ratioP2;P2;SDS_P1;SDS_P2;PMS_P1;PMS_P2;Temp;Humidity;BMP_temperature;BMP_pressure;BME280_temperature;BME280_humidity;BME280_pressure;Samples;Min_cycle;Max_cycle;Signal;HPM_P1;HPM_P2
2022/01/17 00:02:40;;;;;;;39.13;17.17;;;0.00;99.90;;;;;;4379724;28;658292;-76
2022/01/17 00:05:28;;;;;;;26.67;11.73;;;0.10;99.90;;;;;;4368144;28;657941;-71
2022/01/17 00:08:17;;;;;;;38.97;16.57;;;0.00;99.90;;;;;;4394628;28;657305;-75
2022/01/17 00:11:05;;;;;;;42.53;18.03;;;0.10;99.90;;;;;;4362659;28;657891;-77
2022/01/17 00:13:52;;;;;;;38.83;16.70;;;0.10;99.90;;;;;;4362323;28;657165;-75
2022/01/17 00:16:44;;;;;;;46.07;16.60;;;0.10;99.90;;;;;;4384849;28;659281;-76
2022/01/17 00:19:39;;;;;;;37.03;15.43;;;0.10;99.90;;;;;;4342872;28;658448;-76
2022/01/17 00:22:26;;;;;;;36.43;17.13;;;0.10;99.90;;;;;;4361742;28;658602;-76
2022/01/17 00:25:15;;;;;;;28.50;12.70;;;0.10;99.90;;;;;;4336479;28;659080;-69
2022/01/17 00:28:04;;;;;;;25.00;10.13;;;0.10;99.90;;;;;;4360726;28;657766;-72
2022/01/17 00:30:53;;;;;;;28.83;12.13;;;0.20;99.90;;;;;;4386694;28;657511;-75
2022/01/17 00:33:45;;;;;;;30.90;14.57;;;0.20;99.90;;;;;;4340463;28;658196;-77
2022/01/17 00:36:34;;;;;;;35.33;14.23;;;0.10;99.90;;;;;;4343119;28;658036;-74
2022/01/17 00:39:23;;;;;;;41.93;18.90;;;0.10;99.90;;;;;;4374805;28;657271;-70
2022/01/17 00:42:14;;;;;;;47.43;19.13;;;0.10;99.90;;;;;;4382347;28;659477;-76
2022/01/17 00:45:06;;;;;;;41.53;19.03;;;0.10;99.90;;;;;;4360613;28;657657;-76
2022/01/17 00:47:57;;;;;;;30.20;13.17;;;0.10;99.90;;;;;;4359404;28;657939;-73
2022/01/17 00:50:48;;;;;;;36.50;15.63;;;0.20;99.90;;;;;;4356567;28;657939;-74
2022/01/17 00:53:38;;;;;;;40.80;17.20;;;0.20;99.90;;;;;;4362567;28;657403;-76
2022/01/17 00:56:27;;;;;;;42.03;18.60;;;0.20;99.90;;;;;;4340398;28;657858;-76
2022/01/17 00:59:15;;;;;;;41.10;18.10;;;0.20;99.90;;;;;;4359085;28;657903;-76
2022/01/17 01:02:03;;;;;;;37.50;13.97;;;0.20;99.90;;;;;;4364875;28;657244;-77
2022/01/17 01:04:51;;;;;;;26.97;12.80;;;0.20;99.90;;;;;;4389008;28;658446;-76
2022/01/17 01:07:38;;;;;;;43.43;18.60;;;0.20;99.90;;;;;;4354842;28;657968;-77
2022/01/17 01:10:26;;;;;;;39.55;18.27;;;0.20;99.90;;;;;;4379920;28;658012;-75
2022/01/17 01:13:16;;;;;;;25.70;11.80;;;0.20;99.90;;;;;;4357497;28;658385;-77
2022/01/17 01:16:29;;;;;;;36.67;16.40;;;0.20;99.90;;;;;;4361477;28;659129;-76
2022/01/17 01:19:28;;;;;;;33.30;14.03;;;0.20;99.90;;;;;;4328007;28;658446;-76
2022/01/17 01:28:22;;;;;;;22.08;10.45;;;0.20;99.90;;;;;;4364573;28;657554;-76
2022/01/17 01:31:15;;;;;;;33.93;13.70;;;0.30;99.90;;;;;;4357895;28;658266;-78
2022/01/17 01:34:05;;;;;;;39.23;18.13;;;0.30;99.90;;;;;;4340003;28;658161;-75
2022/01/17 01:36:52;;;;;;;27.97;12.47;;;0.30;99.90;;;;;;4359248;28;658052;-76
2022/01/17 01:39:40;;;;;;;34.53;14.87;;;0.30;99.90;;;;;;4379908;28;658530;-75
2022/01/17 01:42:30;;;;;;;35.47;17.00;;;0.30;99.90;;;;;;4371451;28;657974;-76
2022/01/17 01:45:17;;;;;;;22.67;9.83;;;0.30;99.90;;;;;;4363391;28;657563;-78
2022/01/17 01:48:08;;;;;;;34.87;15.93;;;0.20;99.90;;;;;;4392230;28;657406;-73
2022/01/17 01:50:56;;;;;;;38.03;16.90;;;0.30;99.90;;;;;;4338130;28;657761;-75
2022/01/17 01:53:43;;;;;;;38.40;17.93;;;0.30;99.90;;;;;;4358081;28;658240;-75
2022/01/17 01:56:31;;;;;;;23.10;8.03;;;0.30;99.90;;;;;;4380533;28;658517;-76
2022/01/17 01:59:20;;;;;;;36.13;16.83;;;0.30;99.90;;;;;;4368767;28;657108;-73
2022/01/17 02:02:07;;;;;;;38.77;17.87;;;0.30;99.90;;;;;;4339428;28;657601;-76
2022/01/17 02:04:56;;;;;;;39.87;17.80;;;0.30;99.90;;;;;;4358405;28;658311;-76
2022/01/17 02:07:44;;;;;;;28.27;12.47;;;0.30;99.90;;;;;;4359622;28;658891;-72
2022/01/17 02:10:32;;;;;;;27.13;12.87;;;0.30;99.90;;;;;;4369757;28;657864;-76
2022/01/17 02:13:19;;;;;;;38.63;16.73;;;0.30;99.90;;;;;;4385335;28;657413;-76
2022/01/17 02:16:10;;;;;;;34.20;15.45;;;0.30;99.90;;;;;;4343031;28;659298;-77
2022/01/17 02:18:57;;;;;;;33.40;15.80;;;0.30;99.90;;;;;;4359269;28;657347;-76
2022/01/17 02:21:47;;;;;;;35.60;16.10;;;0.30;99.90;;;;;;4378799;28;658810;-75
2022/01/17 02:24:35;;;;;;;30.13;13.87;;;0.30;99.90;;;;;;4349910;28;657803;-76
2022/01/17 02:27:22;;;;;;;31.00;15.37;;;0.40;99.90;;;;;;4359456;28;657699;-76
2022/01/17 02:30:12;;;;;;;28.30;13.43;;;0.40;99.90;;;;;;4380716;28;658752;-75
2022/01/17 02:32:59;;;;;;;18.57;9.57;;;0.40;99.90;;;;;;4342441;28;659315;-76
2022/01/17 02:35:48;;;;;;;31.52;15.48;;;0.40;99.90;;;;;;4346211;28;656463;-75
2022/01/17 02:38:36;;;;;;;31.17;13.27;;;0.50;99.90;;;;;;4381796;28;658834;-77
2022/01/17 02:41:28;;;;;;;25.45;12.45;;;0.50;99.90;;;;;;4344711;28;657611;-73
2022/01/17 02:44:15;;;;;;;27.17;13.33;;;0.50;99.90;;;;;;4344717;28;658813;-76
2022/01/17 02:47:03;;;;;;;28.70;14.47;;;0.50;99.90;;;;;;4342136;28;657628;-72
2022/01/17 02:49:50;;;;;;;27.43;9.73;;;0.50;99.90;;;;;;4384656;28;658000;-78
2022/01/17 02:52:38;;;;;;;25.13;12.77;;;0.50;99.90;;;;;;4338592;28;656580;-75
2022/01/17 02:55:27;;;;;;;31.60;14.17;;;0.50;99.90;;;;;;4389574;28;659068;-75
2022/01/17 02:58:14;;;;;;;19.67;9.82;;;0.50;99.90;;;;;;4361057;28;658791;-73
2022/01/17 03:01:04;;;;;;;23.43;11.67;;;0.60;99.90;;;;;;4370343;28;656199;-78
2022/01/17 03:03:51;;;;;;;24.57;11.20;;;0.60;99.90;;;;;;4369034;28;658108;-70
2022/01/17 03:06:39;;;;;;;14.63;7.80;;;0.60;99.90;;;;;;4338857;28;659165;-70
2022/01/17 03:09:30;;;;;;;21.50;10.10;;;0.60;99.90;;;;;;4390186;28;656256;-76
2022/01/17 03:12:19;;;;;;;20.57;10.67;;;0.60;99.90;;;;;;4365570;28;657433;-70
2022/01/17 03:15:09;;;;;;;24.10;12.23;;;0.70;99.90;;;;;;4375525;28;657146;-71
2022/01/17 03:17:56;;;;;;;17.93;9.20;;;0.70;99.90;;;;;;4383833;28;658132;-71
2022/01/17 03:20:43;;;;;;;18.57;9.20;;;0.70;99.90;;;;;;4364973;28;657150;-70
2022/01/17 03:23:31;;;;;;;24.40;11.65;;;0.70;99.90;;;;;;4384313;28;656760;-70
2022/01/17 03:26:18;;;;;;;20.17;11.00;;;0.70;99.90;;;;;;4346349;28;658371;-71
2022/01/17 03:29:07;;;;;;;22.60;11.90;;;0.70;99.90;;;;;;4377547;28;657812;-69
2022/01/17 03:31:55;;;;;;;20.63;9.77;;;0.80;99.90;;;;;;4354144;28;658105;-75
2022/01/17 03:34:42;;;;;;;21.53;11.50;;;0.80;99.90;;;;;;4358584;28;656426;-75
2022/01/17 03:37:30;;;;;;;11.77;5.90;;;0.80;99.90;;;;;;4353504;28;658561;-75
2022/01/17 03:40:17;;;;;;;24.57;10.60;;;0.70;99.90;;;;;;4349253;28;656499;-74
2022/01/17 03:43:05;;;;;;;21.37;9.73;;;0.70;99.90;;;;;;4384913;28;658192;-76
2022/01/17 03:45:57;;;;;;;20.87;9.87;;;0.70;99.90;;;;;;4363784;28;657417;-76
2022/01/17 03:48:44;;;;;;;7.50;4.07;;;0.80;99.90;;;;;;4351034;28;657711;-71
2022/01/17 03:51:32;;;;;;;23.97;11.40;;;0.70;99.90;;;;;;4381500;28;655439;-76
2022/01/17 03:54:19;;;;;;;13.13;6.40;;;0.70;99.90;;;;;;4375865;28;659263;-72
2022/01/17 03:57:08;;;;;;;21.57;10.93;;;0.70;99.90;;;;;;4369789;28;656297;-70
2022/01/17 03:59:55;;;;;;;17.37;7.23;;;0.70;99.90;;;;;;4361103;28;659788;-70
2022/01/17 04:02:44;;;;;;;20.27;8.43;;;0.70;99.90;;;;;;4368378;28;656350;-71
2022/01/17 04:05:32;;;;;;;23.00;11.50;;;0.70;99.90;;;;;;4380006;28;657008;-77
2022/01/17 04:08:19;;;;;;;23.03;10.70;;;0.70;99.90;;;;;;4377821;28;659395;-77
2022/01/17 04:11:07;;;;;;;21.50;10.90;;;0.80;99.90;;;;;;4364783;28;657239;-75
2022/01/17 04:13:54;;;;;;;12.63;5.97;;;0.70;99.90;;;;;;4388986;28;659149;-76
2022/01/17 04:16:42;;;;;;;23.23;10.27;;;0.70;99.90;;;;;;4366372;28;656570;-72
2022/01/17 04:19:31;;;;;;;21.33;10.23;;;0.70;99.90;;;;;;4361656;28;658995;-76
2022/01/17 04:22:18;;;;;;;13.60;7.07;;;0.70;99.90;;;;;;4365825;28;658008;-72
2022/01/17 04:25:07;;;;;;;22.37;10.90;;;0.70;99.90;;;;;;4385839;28;656676;-75
2022/01/17 04:27:54;;;;;;;24.33;10.93;;;0.70;99.90;;;;;;4362433;28;658258;-76
2022/01/17 04:30:42;;;;;;;22.83;9.83;;;0.70;99.90;;;;;;4358801;28;658058;-75
2022/01/17 04:33:30;;;;;;;20.37;9.80;;;0.70;99.90;;;;;;4389302;28;657327;-76
2022/01/17 04:36:19;;;;;;;24.47;10.53;;;0.80;99.90;;;;;;4341996;28;656568;-70
2022/01/17 04:39:09;;;;;;;19.90;10.60;;;0.80;99.90;;;;;;4381446;28;657446;-70
2022/01/17 04:41:57;;;;;;;22.57;11.90;;;0.80;99.90;;;;;;4358604;28;658317;-70
2022/01/17 04:47:51;;;;;;;26.17;12.03;;;0.80;99.90;;;;;;4357307;28;657669;-69
2022/01/17 04:50:39;;;;;;;31.47;11.87;;;0.70;99.90;;;;;;4354480;28;659053;-70
2022/01/17 04:53:29;;;;;;;27.17;12.93;;;0.80;99.90;;;;;;4379585;28;657480;-77
2022/01/17 04:56:17;;;;;;;32.30;15.82;;;0.80;99.90;;;;;;4345411;28;657681;-76
2022/01/17 04:59:05;;;;;;;33.13;14.93;;;0.80;99.90;;;;;;4388080;28;658791;-76
2022/01/17 05:01:52;;;;;;;18.00;10.00;;;0.80;99.90;;;;;;4341714;28;657829;-76
2022/01/17 05:04:40;;;;;;;26.30;12.43;;;0.80;99.90;;;;;;4383886;28;658583;-76
2022/01/17 05:07:27;;;;;;;30.13;14.33;;;0.90;99.90;;;;;;4367009;28;657705;-76
2022/01/17 05:10:17;;;;;;;29.20;14.73;;;0.90;99.90;;;;;;4365163;28;658070;-76
2022/01/17 05:13:05;;;;;;;31.83;15.00;;;0.90;99.90;;;;;;4352060;28;658644;-77
2022/01/17 05:16:05;;;;;;;23.27;11.70;;;0.90;99.90;;;;;;4354252;28;657996;-74
2022/01/17 05:22:01;;;;;;;23.17;11.93;;;1.00;99.90;;;;;;4363171;28;657855;-75
2022/01/17 05:24:51;;;;;;;30.50;15.90;;;1.00;99.90;;;;;;4356759;28;659133;-76
2022/01/17 05:27:40;;;;;;;32.00;15.70;;;1.00;99.90;;;;;;4361973;28;658763;-76
2022/01/17 05:30:28;;;;;;;21.03;10.67;;;1.00;99.90;;;;;;4359439;28;658140;-77
2022/01/17 05:33:15;;;;;;;32.73;14.60;;;1.00;99.90;;;;;;4383327;28;657492;-75
2022/01/17 05:36:03;;;;;;;23.70;11.60;;;1.00;99.90;;;;;;4361261;28;658324;-75
2022/01/17 05:38:52;;;;;;;21.80;11.00;;;1.10;99.90;;;;;;4379881;28;658017;-75
2022/01/17 05:41:39;;;;;;;19.97;10.30;;;1.00;99.90;;;;;;4359331;28;658799;-79
2022/01/17 05:44:28;;;;;;;26.70;12.70;;;1.10;99.90;;;;;;4369157;28;658184;-76
2022/01/17 05:47:16;;;;;;;29.27;13.27;;;1.00;99.90;;;;;;4382161;28;660483;-76
2022/01/17 05:50:04;;;;;;;29.80;14.73;;;1.10;99.90;;;;;;4362236;28;659165;-76
2022/01/17 05:52:52;;;;;;;25.40;14.10;;;1.10;99.90;;;;;;4374874;28;657622;-74
2022/01/17 05:55:41;;;;;;;27.07;13.70;;;1.10;99.90;;;;;;4385835;28;658216;-75
2022/01/17 05:58:34;;;;;;;29.27;14.20;;;1.10;99.90;;;;;;4338921;28;657476;-76
2022/01/17 06:01:28;;;;;;;29.00;15.20;;;1.10;99.90;;;;;;4348243;28;657782;-75
2022/01/17 06:04:15;;;;;;;32.87;15.90;;;1.10;99.90;;;;;;4367930;28;659179;-74
2022/01/17 06:07:03;;;;;;;31.10;16.67;;;1.10;99.90;;;;;;4347670;28;657483;-75
2022/01/17 06:09:51;;;;;;;23.20;11.53;;;1.10;99.90;;;;;;4357963;28;657436;-75
2022/01/17 06:12:38;;;;;;;19.70;10.10;;;1.10;99.90;;;;;;4356092;28;658181;-73
2022/01/17 06:15:26;;;;;;;32.03;14.27;;;1.10;99.90;;;;;;4375140;28;657887;-75
2022/01/17 06:18:15;;;;;;;27.37;12.43;;;1.20;99.90;;;;;;4348328;28;658635;-74
2022/01/17 06:21:03;;;;;;;27.30;12.00;;;1.20;99.90;;;;;;4363390;28;661024;-74
2022/01/17 06:23:52;;;;;;;22.85;9.55;;;1.30;99.90;;;;;;4385276;28;658423;-78
2022/01/17 06:26:40;;;;;;;22.53;10.97;;;1.30;99.90;;;;;;4358993;28;656463;-76
2022/01/17 06:29:28;;;;;;;23.67;10.37;;;1.40;99.90;;;;;;4349629;28;657515;-76
2022/01/17 06:32:19;;;;;;;21.33;9.37;;;1.50;99.90;;;;;;4373833;28;658363;-75
2022/01/17 06:35:09;;;;;;;20.33;9.53;;;1.50;99.90;;;;;;4349640;28;657207;-74
2022/01/17 06:37:57;;;;;;;19.15;8.57;;;1.50;99.90;;;;;;4366796;28;656249;-73
2022/01/17 06:40:44;;;;;;;18.63;9.03;;;1.60;99.90;;;;;;4369053;28;658170;-76
2022/01/17 06:43:32;;;;;;;22.67;10.50;;;1.60;99.90;;;;;;4359689;28;657342;-76
2022/01/17 06:46:20;;;;;;;19.90;8.73;;;1.70;99.90;;;;;;4388607;28;657889;-71
2022/01/17 06:49:07;;;;;;;25.50;11.83;;;1.70;99.90;;;;;;4355050;28;657186;-75
2022/01/17 06:51:56;;;;;;;24.67;11.57;;;1.70;99.90;;;;;;4373690;28;657480;-74
2022/01/17 06:54:44;;;;;;;17.47;8.13;;;1.60;99.90;;;;;;4360246;28;658472;-73
2022/01/17 06:57:32;;;;;;;18.03;8.13;;;1.60;99.90;;;;;;4376879;28;656752;-72
2022/01/17 07:00:20;;;;;;;24.13;11.23;;;1.60;99.90;;;;;;4381122;28;658740;-74
2022/01/17 07:03:07;;;;;;;23.87;11.17;;;1.50;99.90;;;;;;4345645;28;657786;-77
2022/01/17 07:05:57;;;;;;;23.23;11.53;;;1.40;99.90;;;;;;4373600;28;658187;-73
2022/01/17 07:08:46;;;;;;;15.27;6.60;;;1.40;99.90;;;;;;4353253;28;657985;-71
2022/01/17 07:11:38;;;;;;;23.23;11.20;;;1.30;99.90;;;;;;4347384;28;657187;-72
2022/01/17 07:14:26;;;;;;;21.33;9.03;;;1.30;99.90;;;;;;4356348;28;658988;-70
2022/01/17 07:17:13;;;;;;;20.50;9.60;;;1.20;99.90;;;;;;4356570;28;656518;-76
2022/01/17 07:20:01;;;;;;;21.97;10.17;;;1.10;99.90;;;;;;4369504;28;656639;-76
2022/01/17 07:22:49;;;;;;;24.97;10.03;;;1.10;99.90;;;;;;4358158;28;657628;-72
2022/01/17 07:25:38;;;;;;;29.40;14.07;;;1.10;99.90;;;;;;4377359;28;658051;-72
2022/01/17 07:28:26;;;;;;;23.50;10.43;;;1.00;99.90;;;;;;4350875;28;657445;-73
2022/01/17 07:31:13;;;;;;;27.30;13.57;;;1.00;99.90;;;;;;4359302;28;657524;-72
2022/01/17 07:34:01;;;;;;;29.90;12.63;;;1.00;99.90;;;;;;4377578;28;658076;-71
2022/01/17 07:36:49;;;;;;;19.97;6.53;;;1.00;99.90;;;;;;4357662;28;657837;-72
2022/01/17 07:39:43;;;;;;;19.40;9.40;;;1.00;99.90;;;;;;4376849;28;656669;-71
2022/01/17 07:42:32;;;;;;;27.30;12.93;;;0.90;99.90;;;;;;4359150;28;656917;-73
2022/01/17 07:45:20;;;;;;;31.27;13.67;;;0.90;99.90;;;;;;4362482;28;658039;-74
2022/01/17 07:48:22;;;;;;;24.20;12.27;;;0.90;99.90;;;;;;4367947;28;658075;-71
2022/01/17 07:51:10;;;;;;;28.50;10.80;;;0.90;99.90;;;;;;4344138;28;658582;-73
2022/01/17 07:53:57;;;;;;;23.17;11.20;;;1.00;99.90;;;;;;4347723;28;657633;-74
2022/01/17 07:56:45;;;;;;;19.33;8.97;;;1.00;99.90;;;;;;4386835;28;658445;-77
2022/01/17 07:59:35;;;;;;;23.75;11.68;;;1.00;99.90;;;;;;4359312;28;657239;-73
2022/01/17 08:02:50;;;;;;;34.17;14.43;;;1.00;99.90;;;;;;4356432;28;657728;-71
2022/01/17 08:05:59;;;;;;;30.10;14.07;;;1.00;99.90;;;;;;4354574;28;658015;-72
2022/01/17 08:08:47;;;;;;;23.60;11.77;;;1.00;99.90;;;;;;4348048;28;657134;-72
2022/01/17 08:11:35;;;;;;;15.17;7.47;;;1.10;99.90;;;;;;4358293;28;658005;-74
2022/01/17 08:14:24;;;;;;;25.17;12.50;;;1.10;99.90;;;;;;4351317;28;656200;-76
2022/01/17 08:17:13;;;;;;;34.30;15.77;;;1.10;99.90;;;;;;4376734;28;657602;-75
2022/01/17 08:20:01;;;;;;;29.53;14.10;;;1.10;99.90;;;;;;4369820;28;657862;-75
2022/01/17 08:22:49;;;;;;;34.53;16.07;;;1.20;99.90;;;;;;4351632;28;659572;-74
2022/01/17 08:26:20;;;;;;;29.67;14.30;;;1.20;99.90;;;;;;4364177;28;657510;-75
2022/01/17 08:29:08;;;;;;;26.80;12.25;;;1.20;99.90;;;;;;4362220;28;657596;-76
2022/01/17 08:31:59;;;;;;;25.33;10.87;;;1.20;99.90;;;;;;4340697;28;657914;-75
2022/01/17 08:34:49;;;;;;;27.67;12.57;;;1.30;99.90;;;;;;4344477;28;658143;-75
2022/01/17 08:37:36;;;;;;;35.57;14.33;;;1.30;99.90;;;;;;4373167;28;658327;-77
2022/01/17 08:40:46;;;;;;;30.40;14.60;;;1.30;99.90;;;;;;4338705;28;658764;-76
2022/01/17 08:43:34;;;;;;;22.90;9.53;;;1.30;99.90;;;;;;4322088;28;659055;-69
2022/01/17 08:46:21;;;;;;;27.57;12.30;;;1.30;99.90;;;;;;4371419;28;657324;-69
2022/01/17 08:49:09;;;;;;;29.77;14.40;;;1.40;99.90;;;;;;4350528;28;658728;-77
2022/01/17 08:52:26;;;;;;;20.07;9.23;;;1.40;99.90;;;;;;4370130;28;657732;-70
2022/01/17 08:55:14;;;;;;;25.10;12.07;;;1.40;99.90;;;;;;4332697;28;658401;-78
2022/01/17 08:58:02;;;;;;;32.67;14.57;;;1.50;99.90;;;;;;4355835;28;659088;-70
2022/01/17 09:00:50;;;;;;;20.50;10.50;;;1.50;99.90;;;;;;4377773;28;658285;-70
2022/01/17 09:03:38;;;;;;;24.90;10.90;;;1.50;99.90;;;;;;4351264;28;657556;-69
2022/01/17 09:06:26;;;;;;;30.03;13.10;;;1.60;99.90;;;;;;4373770;28;657450;-76
2022/01/17 09:09:16;;;;;;;28.90;14.53;;;1.60;99.90;;;;;;4334870;28;659092;-78
2022/01/17 09:12:05;;;;;;;26.70;11.30;;;1.60;99.90;;;;;;4337207;28;658589;-78
2022/01/17 09:14:53;;;;;;;25.37;11.63;;;1.50;99.90;;;;;;4332820;28;657935;-76
2022/01/17 09:17:40;;;;;;;29.40;13.73;;;1.50;99.90;;;;;;4359805;28;658149;-78
2022/01/17 09:20:30;;;;;;;24.40;10.60;;;1.60;99.90;;;;;;4336944;28;657531;-73
2022/01/17 09:23:17;;;;;;;14.03;7.33;;;1.50;99.90;;;;;;4339003;28;657492;-69
2022/01/17 09:26:07;;;;;;;26.60;12.43;;;1.50;99.90;;;;;;4374912;28;657985;-77
2022/01/17 09:28:54;;;;;;;23.45;10.65;;;1.50;99.90;;;;;;4348639;28;658685;-77
2022/01/17 09:31:42;;;;;;;24.30;10.73;;;1.50;99.90;;;;;;4351851;28;658136;-76
2022/01/17 09:34:30;;;;;;;29.00;13.90;;;1.40;99.90;;;;;;4377988;28;658586;-69
2022/01/17 09:37:17;;;;;;;23.37;10.80;;;1.30;99.90;;;;;;4349577;28;658306;-76
2022/01/17 09:40:07;;;;;;;25.40;12.20;;;1.30;99.90;;;;;;4376587;28;657963;-76
2022/01/17 09:42:58;;;;;;;31.73;14.80;;;1.30;99.90;;;;;;4358578;28;658693;-72
2022/01/17 09:45:46;;;;;;;20.97;9.97;;;1.30;99.90;;;;;;4354077;28;657991;-77
2022/01/17 09:48:37;;;;;;;30.30;15.57;;;1.30;99.90;;;;;;4356770;28;656410;-78
2022/01/17 09:51:39;;;;;;;20.73;10.47;;;1.20;99.90;;;;;;4343560;28;658549;-69
2022/01/17 09:54:27;;;;;;;29.40;14.00;;;1.30;99.90;;;;;;4346894;28;658542;-76
2022/01/17 09:57:16;;;;;;;25.73;13.03;;;1.30;99.90;;;;;;4353033;28;658436;-69
2022/01/17 10:00:06;;;;;;;16.40;9.73;;;1.30;99.90;;;;;;4343050;28;657601;-76
2022/01/17 10:02:54;;;;;;;25.20;11.73;;;1.20;99.90;;;;;;4355162;28;657565;-76
2022/01/17 10:05:42;;;;;;;19.80;8.67;;;1.20;99.90;;;;;;4360953;28;659181;-76
2022/01/17 10:08:30;;;;;;;23.40;11.60;;;1.20;99.90;;;;;;4381480;28;656995;-76
2022/01/17 10:11:18;;;;;;;13.80;6.77;;;1.30;99.90;;;;;;4356132;28;657575;-70
2022/01/17 10:14:06;;;;;;;27.93;13.53;;;1.30;99.90;;;;;;4372820;28;657863;-75
2022/01/17 10:16:56;;;;;;;20.87;9.53;;;1.30;99.90;;;;;;4357179;28;659718;-72
2022/01/17 10:19:44;;;;;;;18.53;9.27;;;1.30;99.90;;;;;;4349383;28;656873;-79
2022/01/17 10:22:43;;;;;;;25.30;12.30;;;1.40;99.90;;;;;;4374645;28;656331;-76
2022/01/17 10:25:49;;;;;;;25.43;10.97;;;1.40;99.90;;;;;;4351457;28;658498;-76
2022/01/17 10:29:00;;;;;;;17.20;7.05;;;1.40;99.90;;;;;;4354089;28;657619;-75
2022/01/17 10:34:56;;;;;;;17.93;8.90;;;1.50;99.90;;;;;;4333046;28;656969;-74
2022/01/17 10:37:45;;;;;;;19.83;9.73;;;1.50;99.90;;;;;;4358666;28;657660;-79
2022/01/17 10:40:34;;;;;;;14.17;7.40;;;1.50;99.90;;;;;;4347469;28;656354;-77
2022/01/17 10:43:25;;;;;;;14.40;8.43;;;1.50;99.90;;;;;;4377464;28;656646;-76
2022/01/17 10:46:13;;;;;;;15.70;7.37;;;1.50;99.90;;;;;;4357923;28;656806;-72
2022/01/17 10:49:03;;;;;;;15.30;7.57;;;1.60;99.90;;;;;;4375549;28;656997;-76
2022/01/17 10:51:54;;;;;;;13.50;7.30;;;1.50;99.90;;;;;;4357613;28;656602;-69
2022/01/17 10:54:44;;;;;;;16.17;8.80;;;1.50;99.90;;;;;;4351794;28;657047;-80
2022/01/17 10:57:35;;;;;;;20.73;10.47;;;1.50;99.90;;;;;;4346321;28;657106;-76
2022/01/17 11:00:24;;;;;;;19.33;9.70;;;1.40;99.90;;;;;;4358451;28;657105;-69
2022/01/17 11:03:13;;;;;;;21.33;10.50;;;1.40;99.90;;;;;;4377306;28;656851;-75
2022/01/17 11:06:03;;;;;;;19.23;10.00;;;1.40;99.90;;;;;;4356377;28;658940;-79
2022/01/17 11:08:53;;;;;;;18.47;9.37;;;1.40;99.90;;;;;;4354546;28;657697;-76
2022/01/17 11:11:41;;;;;;;19.97;9.03;;;1.40;99.90;;;;;;4340913;28;656832;-79
2022/01/17 11:14:31;;;;;;;13.30;7.17;;;1.40;99.90;;;;;;4357724;28;657359;-68
2022/01/17 11:17:24;;;;;;;18.77;9.47;;;1.50;99.90;;;;;;4353940;28;656934;-67
2022/01/17 11:20:12;;;;;;;15.68;8.52;;;1.40;99.90;;;;;;4331720;28;656850;-69
2022/01/17 11:23:00;;;;;;;14.18;6.75;;;1.50;99.90;;;;;;4373049;28;657475;-72
2022/01/17 11:25:52;;;;;;;21.23;9.03;;;1.50;99.90;;;;;;4359563;28;656627;-76
2022/01/17 11:28:40;;;;;;;14.93;6.67;;;1.50;99.90;;;;;;4356698;28;657325;-72
2022/01/17 11:31:28;;;;;;;15.20;6.80;;;1.50;99.90;;;;;;4343419;28;656505;-72
2022/01/17 11:34:18;;;;;;;21.93;10.30;;;1.50;99.90;;;;;;4382484;28;656397;-77
2022/01/17 11:37:06;;;;;;;23.53;11.40;;;1.50;99.90;;;;;;4352475;28;658248;-78
2022/01/17 11:39:55;;;;;;;14.60;6.53;;;1.60;99.90;;;;;;4362967;28;658457;-69
2022/01/17 11:42:45;;;;;;;23.27;9.20;;;1.60;99.90;;;;;;4359436;28;656321;-79
2022/01/17 11:45:37;;;;;;;15.63;7.30;;;1.60;99.90;;;;;;4341912;28;657717;-77
2022/01/17 11:48:27;;;;;;;19.45;10.00;;;1.60;99.90;;;;;;4351794;28;658194;-78
2022/01/17 11:51:15;;;;;;;17.17;7.70;;;1.60;99.90;;;;;;4344677;28;658502;-74
2022/01/17 11:54:10;;;;;;;14.87;7.40;;;1.70;99.90;;;;;;4347477;28;656828;-67
2022/01/17 11:56:58;;;;;;;20.63;9.93;;;1.80;99.90;;;;;;4333654;28;657781;-79
2022/01/17 11:59:48;;;;;;;24.87;9.30;;;1.80;99.90;;;;;;4377994;28;656721;-77
2022/01/17 12:02:37;;;;;;;18.60;8.40;;;1.90;99.90;;;;;;4350899;28;657000;-79
2022/01/17 12:05:43;;;;;;;15.63;7.97;;;1.90;99.90;;;;;;4352256;28;657616;-78
2022/01/17 12:08:31;;;;;;;11.45;5.68;;;2.00;99.90;;;;;;4355422;28;656759;-77
2022/01/17 12:11:29;;;;;;;54.17;8.47;;;2.10;99.90;;;;;;4356863;28;657674;-77
2022/01/17 12:15:06;;;;;;;12.30;6.18;;;2.10;99.90;;;;;;4340534;28;659008;-76
2022/01/17 12:21:40;;;;;;;4.20;3.10;;;2.30;99.90;;;;;;4357100;28;655413;-69
2022/01/17 12:24:47;;;;;;;0.87;0.60;;;2.20;99.90;;;;;;4355392;28;655378;-69
2022/01/17 12:27:35;;;;;;;1.70;0.60;;;1.40;99.90;;;;;;4327749;28;655829;-72
2022/01/17 12:30:23;;;;;;;0.80;0.60;;;1.00;99.90;;;;;;4351327;28;655214;-72
2022/01/17 12:33:12;;;;;;;0.77;0.40;;;0.80;99.90;;;;;;4364705;28;655988;-72
2022/01/17 12:36:02;;;;;;;1.67;0.50;;;0.60;99.90;;;;;;4356832;28;656288;-72
2022/01/17 12:38:51;;;;;;;1.00;0.50;;;0.50;99.90;;;;;;4342899;28;656150;-72
2022/01/17 12:41:41;;;;;;;1.07;0.20;;;0.30;99.90;;;;;;4363116;28;656524;-72
2022/01/17 12:44:29;;;;;;;1.27;0.57;;;0.10;99.90;;;;;;4359199;28;656105;-71
2022/01/17 12:47:17;;;;;;;2.60;0.90;;;0.00;99.90;;;;;;4363069;28;655414;-72
2022/01/17 12:50:05;;;;;;;2.73;0.90;;;-0.10;99.90;;;;;;4382788;28;656629;-72
2022/01/17 12:52:53;;;;;;;1.40;0.70;;;-0.10;99.90;;;;;;4357661;28;656651;-72
2022/01/17 12:55:43;;;;;;;1.03;0.43;;;-0.20;99.90;;;;;;4364177;28;657276;-72
2022/01/17 12:58:31;;;;;;;1.83;0.67;;;-0.30;99.90;;;;;;4347917;28;656813;-72
2022/01/17 13:01:32;;;;;;;2.27;0.90;;;-0.30;99.90;;;;;;4357500;28;657674;-72
2022/01/17 13:04:20;;;;;;;3.37;0.90;;;-0.40;99.90;;;;;;4325968;28;657001;-73
2022/01/17 13:07:08;;;;;;;1.90;0.80;;;-0.30;99.90;;;;;;4356272;28;656294;-72
2022/01/17 13:09:55;;;;;;;2.80;1.05;;;-0.30;99.90;;;;;;4381862;28;657119;-73
2022/01/17 13:12:44;;;;;;;3.63;1.70;;;-0.30;99.90;;;;;;4352000;28;657223;-72
2022/01/17 13:15:32;;;;;;;6.40;2.00;;;-0.30;99.90;;;;;;4360824;28;656741;-72
2022/01/17 13:18:20;;;;;;;4.50;1.80;;;-0.30;99.90;;;;;;4382253;28;655930;-72
2022/01/17 13:21:08;;;;;;;8.33;2.20;;;-0.30;99.90;;;;;;4342500;28;657091;-73
2022/01/17 13:23:59;;;;;;;4.07;1.97;;;-0.30;99.90;;;;;;4368336;28;657194;-73
2022/01/17 13:26:47;;;;;;;8.33;2.83;;;-0.20;99.90;;;;;;4351442;28;656597;-72
2022/01/17 13:29:39;;;;;;;8.30;2.87;;;-0.20;99.90;;;;;;4353085;28;656766;-73
2022/01/17 13:32:34;;;;;;;10.55;3.85;;;-0.20;99.90;;;;;;4334315;28;656898;-72
2022/01/17 13:35:23;;;;;;;10.57;3.30;;;-0.10;99.90;;;;;;4346889;28;657812;-73
2022/01/17 13:38:17;;;;;;;8.50;2.78;;;-0.20;99.90;;;;;;4366507;28;657327;-73
2022/01/17 13:41:05;;;;;;;6.77;2.30;;;-0.20;99.90;;;;;;4345515;28;657414;-73
2022/01/17 13:43:52;;;;;;;6.70;2.60;;;-0.20;99.90;;;;;;4357541;28;657111;-73
2022/01/17 13:47:29;;;;;;;10.30;2.80;;;-0.20;99.90;;;;;;4374671;28;657082;-73
2022/01/17 13:50:19;;;;;;;5.23;2.67;;;-0.30;99.90;;;;;;4333920;28;657674;-72
2022/01/17 13:53:07;;;;;;;8.03;2.90;;;-0.40;99.90;;;;;;4376697;28;656549;-72
2022/01/17 13:56:05;;;;;;;8.27;2.93;;;-0.40;99.90;;;;;;4377614;28;657232;-73
2022/01/17 13:58:54;;;;;;;10.60;3.13;;;-0.40;99.90;;;;;;4334192;28;657405;-72
2022/01/17 14:01:41;;;;;;;9.47;3.70;;;-0.40;99.90;;;;;;4360204;28;657829;-73
2022/01/17 14:04:30;;;;;;;8.17;2.77;;;-0.30;99.90;;;;;;4350722;28;657654;-73
2022/01/17 14:07:50;;;;;;;7.43;2.63;;;-0.30;99.90;;;;;;4354968;28;656518;-72
2022/01/17 14:10:37;;;;;;;6.40;2.37;;;0.10;99.90;;;;;;4332263;28;656569;-73
2022/01/17 14:13:26;;;;;;;9.10;2.97;;;0.10;99.90;;;;;;4381559;28;656695;-73
2022/01/17 14:16:21;;;;;;;8.27;2.80;;;-0.10;99.90;;;;;;4352461;28;656257;-73
2022/01/17 14:19:10;;;;;;;7.87;3.43;;;0.30;99.90;;;;;;4319061;28;656554;-73
2022/01/17 14:22:02;;;;;;;11.93;3.43;;;1.40;99.90;;;;;;4356818;28;655613;-72
2022/01/17 14:25:22;;;;;;;10.10;3.17;;;3.20;99.90;;;;;;4350913;28;657816;-73
2022/01/17 14:28:56;;;;;;;10.50;3.70;;;4.10;99.90;;;;;;4353349;28;656820;-73
2022/01/17 14:31:45;;;;;;;10.27;3.27;;;4.70;99.90;;;;;;4315968;28;656752;-74
2022/01/17 14:34:33;;;;;;;6.93;2.43;;;4.00;99.90;;;;;;4358433;28;656525;-73
2022/01/17 14:37:22;;;;;;;6.63;2.90;;;3.00;99.90;;;;;;4377993;28;655909;-73
2022/01/17 14:40:12;;;;;;;9.60;3.37;;;2.10;99.90;;;;;;4350453;28;656517;-74
2022/01/17 14:43:12;;;;;;;9.13;3.13;;;1.20;99.90;;;;;;4354429;28;656280;-74
2022/01/17 14:46:04;;;;;;;11.02;3.88;;;0.70;99.90;;;;;;4354071;28;655525;-73
2022/01/17 14:48:52;;;;;;;9.40;3.07;;;0.30;99.90;;;;;;4337379;28;656857;-73